Thursday, September 29, 2016, 12:55 PM EDT

KRIC, Richmond International Airport

Location: Sandston, VA, United States Lat: 37.517
Local Time: 12:55 PM EDT (16:55 GMT) Lon: -77.317
Time Zone: US/Eastern Elev: 167 ft

Show me the last for .
Show Decoded

2016-09-29 11:54 METAR KRIC 291554Z 08004KT 10SM BKN018 BKN029 OVC110 23/21 A3008 =
2016-09-29 10:54 METAR KRIC 291454Z 07007KT 10SM BKN010 OVC021 22/21 A3007 RMK AO2 RAB10E22
                 SLP185 P0000 60001 T02220206 51010 =
2016-09-29 10:32 METAR KRIC 291432Z 07010KT 10SM BKN008 BKN021 OVC110 22/21 A3006 RMK AO2
                 RAB10E22 P0000 T02220206 =
2016-09-29 10:28 METAR KRIC 291428Z 07009KT 10SM SCT008 BKN021 OVC110 22/21 A3006 RMK AO2
                 RAB10E22 P0000 T02220211 =
2016-09-29 09:54 METAR KRIC 291354Z 11008KT 10SM BKN007 BKN011 OVC021 22/21 A3006 RMK AO2 RAE38
                 SLP183 P0000 T02170206 =
2016-09-29 08:54 METAR KRIC 291254Z 05006KT 10SM -RA OVC005 20/19 A3005 RMK AO2 RAE13B30 SLP179
                 P0001 T02000194 =
2016-09-29 07:54 METAR KRIC 291154Z 03004KT 10SM -RA OVC005 20/19 A3004 RMK AO2 RAB1058E14B53
                 SLP174 P0000 60050 70527 T02000194 10200 20189 53006 =
2016-09-29 07:36 METAR KRIC 291136Z 33008KT 10SM BKN005 OVC030 19/19 A3004 RMK AO2 RAB1058E14
                 P0000 T01940189 $ =
2016-09-29 06:54 METAR KRIC 291054Z 08008KT 10SM FEW007 SCT080 BKN110 19/18 A3000 RMK AO2 RAE04
                 TSE04 SLP161 P0000 T01940183 $ =
2016-09-29 06:04 METAR KRIC 291004Z 10012KT 10SM FEW025 SCT080 OVC110 19/18 A2999 RMK AO2 RAE04
                 TSE04 OCNL LTG DSNT NE P0000 T01940183 $ =
2016-09-29 05:54 METAR KRIC 290954Z 09011KT 7SM -TSRA SCT025CB BKN090 OVC120 19/18 A2998 RMK AO2
                 TSB13 SLP157 OCNL LTGIC AND TS NE MOV NE P0046 T01940183 $ =
2016-09-29 05:38 METAR KRIC 290938Z 09009KT 6SM -TSRA BR SCT015 BKN050CB OVC100 19/18 A2999 RMK
                 AO2 TSB13 OCNL LTGIC AND TS N-E MOV NE P0044 T01890183 $ =
2016-09-29 05:24 METAR KRIC 290924Z 09007KT 2SM +TSRA BR FEW005 BKN018 OVC030CB 19/18 A3000 RMK
                 AO2 TSB13 OCNL LTGIC AND TS NE MOV NE P0042 T01890183 $ =
2016-09-29 05:13 METAR KRIC 290913Z 19007KT 1SM R34/4000VP6000FT +TSRA BR FEW005 BKN020 OVC035CB
                 19/18 A3003 RMK AO2 TSB13 OCNL LTGIC AND TS S-W MOV NE P0001 T01940183 $ =
2016-09-29 04:54 METAR KRIC 290854Z 30007KT 9SM -RA FEW005 BKN017 OVC024 19/18 A3002 RMK AO2
                 RAB51 SLP168 P0000 60004 T01940183 53005 $ =
2016-09-29 04:44 METAR KRIC 290844Z COR 12005KT 10SM SCT005 BKN012 OVC100 19/19 A3003 =
2016-09-29 04:33 METAR KRIC 290833Z 12004KT 10SM FEW005 BKN015 OVC100 19/19 A3001 RMK AO2
                 T01940189 $ =
2016-09-29 04:11 METAR KRIC 290811Z 11006KT 10SM FEW004 SCT015 OVC140 19/19 A3000 RMK AO2
                 T01940189 $ =
2016-09-29 03:54 METAR KRIC 290754Z 11007KT 10SM SCT009 BKN015 OVC060 19/19 A3000 RMK AO2 RAE31
                 SLP161 P0000 T01940189 $ =
2016-09-29 03:40 METAR KRIC 290740Z 11009KT 10SM BKN025 OVC060 19/19 A3000 RMK AO2 RAE31 P0000
                 T01940189 $ =
2016-09-29 02:54 METAR KRIC 290654Z 12011KT 5SM -RA BR FEW005 SCT020 OVC037 19/19 A3000 RMK AO2
                 RAB06 TSB16E40 SLP161 P0004 T01940189 $ =
2016-09-29 02:40 METAR KRIC 290640Z 13009KT 10SM -RA FEW005 SCT012 OVC045 19/18 A3000 =
2016-09-29 02:16 METAR KRIC 290616Z 11009KT 4SM TSRA BR SCT005 OVC015CB 19/18 A3000 RMK AO2 RAB06
                 TSB16 OCNL LTGIC AND TS NE-SE MOV NE P0002 T01890183 $ =
2016-09-29 01:54 METAR KRIC 290554Z 10010KT 7SM SCT005 OVC017 19/18 A3000 RMK AO2 RAE47 TSE15
                 SLP163 P0037 60212 T01890183 10194 20183 58001 $ =
2016-09-29 01:15 METAR KRIC 290515Z 00000KT 6SM -RA BR BKN005 OVC019 18/18 A3002 RMK AO2 TSE15
                 OCNL LTG DSNT NE P0029 T01830183 $ =
2016-09-29 01:03 METAR KRIC 290503Z 07008KT 4SM R34/3500VP6000FT -TSRA BR SCT005 BKN019 OVC027CB
                 18/18 A3001 RMK AO2 OCNL LTGIC AND TS E MOV NE P0029 T01830178 $ =
2016-09-29 00:56 METAR KRIC 290456Z 07010KT 1 1/2SM R34/3500VP6000FT +TSRA BR SCT007 BKN019
                 OVC027CB 18/18 A3000 =
2016-09-29 00:54 METAR KRIC 290454Z 09011KT 3SM R34/3500VP6000FT +TSRA BR FEW009 BKN022 OVC030CB
                 18/18 A3001 RMK AO2 SLP166 OCNL LTGIC AND TS SW MOV NE P0032 T01830178 402560183
                 $ =
2016-09-29 00:29 METAR KRIC 290429Z 05009KT 4SM -TSRA BR SCT007 BKN026 OVC035CB 19/18 A3000 RMK
                 AO2 OCNL LTGIC AND TS NE AND SE MOV NE P0018 T01890183 $ =
2016-09-29 00:19 METAR KRIC 290419Z COR 04010KT 2 1/2SM R34/5000VP6000FT +TSRA BR FEW006 BKN020
                 OVC045CB 19/18 A3000 =
2016-09-28 23:54 METAR KRIC 290354Z 03012G20KT 3SM +TSRA BR BKN006 BKN025CB OVC042 19/18 A3001
                 RMK AO2 SLP164 OCNL LTGICCC AND TS N MOV NE P0045 T01890183 $ =
2016-09-28 23:49 METAR KRIC 290349Z COR 03013KT 3SM +TSRA BR BKN006 BKN025CB OVC042 18/18 A3000 =
2016-09-28 23:40 METAR KRIC 290340Z COR 36012KT 6SM TSRA BR BKN006 BKN025CB OVC042 19/18 A3001 =
2016-09-28 23:19 METAR KRIC 290319Z 02008KT 2 1/2SM +TSRA BR BKN006 BKN025CB OVC042 18/18 A3001
                 RMK AO2 VIS 1 3/4V4 TSB19 OCNL LTGICCC AND TS OHD MOV NE P0016 T01830183 $ =
2016-09-28 22:54 METAR KRIC 290254Z 10006KT 10SM -RA SCT007 BKN045 OVC110 19/18 A3001 RMK AO2
                 TSE50 PRESRR SLP164 TS MOV NE P0031 60098 T01890183 55005 $ =
2016-09-28 22:34 METAR KRIC 290234Z 06010KT 10SM -TSRA FEW005 BKN040CB OVC065 19/18 A2998 RMK AO2
                 OCNL LTGICCC AND TS NE-E MOV NE P0031 T01890183 $ =
2016-09-28 22:11 METAR KRIC 290211Z 10011KT 1 3/4SM R34/5000VP6000FT TSRA BR FEW005 BKN040CB
                 OVC065 19/18 A2999 RMK AO2 OCNL LTGICCC AND TS NE-E MOV NE P0018 T01890183 $ =
2016-09-28 21:54 METAR KRIC 290154Z 10008KT 4SM -TSRA BR FEW005 BKN047CB OVC090 19/18 A2999 RMK
                 AO2 TSE23B33 SLP157 OCNL LTGICCC AND TS SE AND NW MOV NE P0019 T01890178 $ =
2016-09-28 21:34 METAR KRIC 290134Z 10013KT 5SM -TSRA BR FEW005 BKN047CB OVC090 19/18 A2997 RMK
                 AO2 TSE23B33 OCNL LTGICCC AND TS S MOV NE P0014 T01890178 $ =
2016-09-28 21:24 METAR KRIC 290124Z 12011KT 3SM -RA BR FEW005 BKN047 OVC090 19/18 A2999 RMK AO2
                 TSE23 TS MOV NE P0011 T01890183 $ =
2016-09-28 20:54 METAR KRIC 290054Z 09009KT 7SM -TSRA SCT005 BKN034CB OVC075 19/19 A2996 RMK AO2
                 SLP150 OCNL LTGICCC AND TS NW-NE MOV NE P0048 T01890189 $ =
2016-09-28 19:54 METAR KRIC 282354Z 21008KT 1 1/2SM R34/5000VP6000FT +TSRA BR FEW006 BKN030CB
                 OVC037 19/19 A3002 RMK AO2 WSHFT 2251 PRESRR SLP169 FRQ LTGICCC AND TS NW-NE MOV
                 NE P0161 60263 T01940194 10244 20189 53036 $ =
2016-09-28 19:33 METAR KRIC 282333Z 00000KT 1SM R34/3500VP6000FT +TSRA BR FEW006 BKN022CB OVC037
                 19/19 A2999 RMK AO2 WSHFT 2251 TWR VIS 1 1/2 FRQ LTGICCC AND TS NW-N MOV NE
                 P0123 T01940194 $ =
2016-09-28 19:07 METAR KRIC 282307Z COR 08014KT 3/4SM R34/3500V5000FT +TSRA BR FEW006 BKN015CB
                 OVC037 19/19 A2996 =
2016-09-28 18:54 METAR KRIC 282254Z 35012G21KT 1/2SM R34/2600VP6000FT +TSRA FG SCT006 BKN018CB
                 OVC022 19/19 A2996 RMK AO2 TWR VIS 1 1/2 TSB24 SLP149 FRQ LTGICCC AND TS OHD MOV
                 NE P0066 T01940189 $ =
2016-09-28 18:50 METAR KRIC 282250Z 27009G15KT 3/4SM R34/4000VP6000FT +TSRA BR SCT006 BKN018CB
                 OVC022 19/19 A2998 RMK AO2 TWR VIS 1 1/2 TSB24 PRESRR FRQ LTGICCC AND TS OHD MOV
                 NE P0042 $ =
2016-09-28 18:28 METAR KRIC 282228Z 02007KT 1 1/2SM TSRA BR SCT006 BKN018CB OVC022 19/19 A2995
                 RMK AO2 SFC VIS 3 TSB24 ONCL LTGIC AND TS NW-N MOV NE P0008 T01940189 $ =
2016-09-28 18:25 METAR KRIC 282225Z 01006KT 5SM TSRA BR FEW006 BKN018CB OVC022 19/19 A2995 RMK
                 AO2 TSB24 ONCL LTGIC AND TS NW-N MOV NE P0005 T01940189 $ =
2016-09-28 17:54 METAR KRIC 282154Z 04011KT 10SM -RA FEW010 SCT022 OVC030 21/19 A2994 RMK AO2
                 RAEMMB10 TSB07E39 SLP142 TS MOV NE P0034 T02060194 $ =
2016-09-28 17:39 METAR KRIC 282139Z 02009KT 7SM -RA FEW010 BKN030 OVC060 22/21 A2994 =
2016-09-28 17:20 METAR KRIC 282120Z 11009KT 1 1/2SM R34/3000VP6000FT +TSRA BR FEW009 BKN020CB
                 OVC065 23/21 A2992 RMK AO2 TWR VIS 2 OCNL LTGIC AND TS OHD MOV NE P0019
                 T02280211 $ =
2016-09-28 17:17 METAR KRIC 282117Z 12008KT 3/4SM R34/3000VP6000FT +TSRA BR SCT011 BKN016CB
                 OVC022 23/22 A2992 RMK AO2 TWR VIS 2 OCNL LTGIC AND TS OHD MOV NE P0014
                 T02280217 $ =
2016-09-28 17:09 METAR KRIC 282109Z 16004KT 2SM R34/3500VP6000FT TS BR SCT011 OVC016CB 23/22
                 A2993 =
2016-09-28 16:54 METAR KRIC 282054Z 11010G20KT 6SM RA BR FEW009 SCT021 BKN035 BKN250 23/22 A2991
                 RMK AO2 RAB49 SLP133 P0000 60002 T02330217 55013 =
2016-09-28 15:54 METAR KRIC 281954Z 12011KT 10SM FEW009 BKN035 BKN055 BKN300 24/22 A2991 RMK AO2
                 SLP132 T02390217 =
2016-09-28 15:04 METAR KRIC 281904Z 12006KT 10SM FEW009 BKN033 BKN060 OVC300 23/21 A2993 RMK AO2
                 T02330211 =
2016-09-28 14:54 METAR KRIC 281854Z 13007KT 10SM FEW009 BKN014 BKN042 OVC300 23/21 A2994 RMK AO2
                 RAE26 SLP143 P0002 T02330211 =
2016-09-28 14:45 METAR KRIC 281845Z 12004KT 10SM BKN013 BKN032 OVC070 23/22 A2995 RMK AO2 RAE26
                 P0002 T02330217 =
2016-09-28 14:28 METAR KRIC 281828Z 13006KT 10SM SCT013 BKN029 OVC070 23/22 A2995 RMK AO2 RAE26
                 P0002 T02330217 =
2016-09-28 13:54 METAR KRIC 281754Z 13006KT 5SM RA SCT016 OVC032 23/21 A2995 RMK AO2 RAB48 SLP145
                 P0002 60002 T02330206 10256 20200 58006 =
2016-09-28 13:12 METAR KRIC 281712Z 13007KT 10SM FEW015 OVC032 25/21 A2996 RMK AO2 T02500211 =

Support USWX by starting your Amazon purchase here.